Latest Weather Observations for Coen Airport

IDQ60801

Issued at 9:05 am EST Saturday 25 October 2014 (issued every 30 minutes, with the page automatically refreshed every 10 minutes)

About weather observations | Map of weather stations | Latest weather observations for QLD | Other Formats
Station Details ID: 027073 Name: COEN AIRPORT Lat: -13.76 Lon: 143.12 Height: 159.3 m
Data from the previous 72 hours. | See also: Recent months at Coen Airport
Date/Time
EST
Temp
°C
App
Temp
°C
Dew
Point
Rel
Hum
%
Delta-T
°C
Wind Press
QNH
hPa
Press
MSL
hPa
Rain
since 9 am
mm
Dir
 
Spd
km/h
Gust
km/h
Spd
kts
Gust
kts
25/09:00am 25.7 23.3 16.3 56 5.8 ESE 24 32 13 17 1017.6 - 0.0
25/08:30am 24.2 22.4 15.9 59 5.1 ESE 20 35 11 19 1017.3 - 0.0
25/08:00am 24.2 21.7 16.2 61 4.9 E 24 33 13 18 1017.1 - 0.0
25/07:30am 23.8 23.1 16.3 63 4.6 SE 15 24 8 13 1016.8 - 0.0
25/07:00am 22.2 20.6 16.0 68 3.8 SE 19 24 10 13 1016.4 - 0.0
25/06:30am 20.8 21.5 16.0 74 2.9 E 7 13 4 7 1016.1 - 0.0
25/06:00am 20.0 19.0 15.6 76 2.6 SSE 15 20 8 11 1015.7 1014.8 0.0
25/05:30am 19.3 20.4 15.6 79 2.2 E 4 9 2 5 1015.6 - 0.0
25/05:00am 19.5 18.8 15.4 77 2.4 SSE 13 15 7 8 1015.5 - 0.0
25/04:30am 19.8 20.2 15.4 76 2.6 ENE 7 13 4 7 1015.6 - 0.0
25/04:00am 20.0 20.4 15.4 75 2.7 ENE 7 11 4 6 1015.3 - 0.0
25/03:30am 19.9 21.4 14.7 72 3.1 CALM 0 4 0 2 1015.2 - 0.0
25/03:00am 20.7 21.6 15.0 70 3.4 NNE 4 7 2 4 1015.2 1014.3 0.0
25/02:30am 21.1 20.0 15.2 69 3.5 SE 15 20 8 11 1015.3 - 0.0
25/02:00am 21.5 19.6 15.1 67 3.8 SE 19 24 10 13 1015.6 - 0.0
25/01:30am 21.8 19.8 14.9 65 4.1 ESE 19 28 10 15 1015.7 - 0.0
25/01:00am 21.7 20.3 14.4 63 4.3 ESE 15 24 8 13 1016.1 - 0.0
25/12:30am 21.9 19.9 14.0 61 4.6 ESE 17 26 9 14 1016.4 - 0.0
25/12:00am 21.7 20.9 14.1 62 4.5 ESE 11 20 6 11 1016.7 1015.8 0.0
 
Date/Time
EST
Temp
°C
App
Temp
°C
Dew
Point
Rel
Hum
%
Delta-T
°C
Wind Press
QNH
hPa
Press
MSL
hPa
Rain
since 9 am
mm
Dir
 
Spd
km/h
Gust
km/h
Spd
kts
Gust
kts
24/11:30pm 21.5 21.2 14.4 64 4.2 E 9 17 5 9 1017.1 - 0.0
24/11:00pm 21.8 23.0 14.9 65 4.1 E 2 9 1 5 1017.3 - 0.0
24/10:30pm 22.3 22.9 15.4 65 4.1 ESE 6 9 3 5 1017.5 - 0.0
24/10:00pm 22.7 22.9 15.8 65 4.2 SE 9 15 5 8 1017.2 - 0.0
24/09:30pm 22.8 23.2 16.4 67 3.9 E 9 15 5 8 1016.9 - 0.0
24/09:00pm 23.0 22.7 16.5 67 4.0 ENE 13 20 7 11 1016.4 1015.6 0.0
24/08:30pm 23.2 22.1 16.3 65 4.2 ENE 17 32 9 17 1016.0 - 0.0
24/08:00pm 23.3 22.2 16.4 65 4.2 ENE 17 32 9 17 1015.8 - 0.0
24/07:30pm 23.6 22.9 16.4 64 4.4 ENE 15 32 8 17 1015.4 - 0.0
24/07:00pm 23.8 23.1 16.3 63 4.6 ENE 15 30 8 16 1015.1 - 0.0
24/06:30pm 24.5 23.4 15.4 57 5.5 ENE 15 28 8 15 1014.9 - 0.0
24/06:00pm 25.4 22.6 13.3 47 7.1 ENE 20 35 11 19 1014.5 1013.6 0.0
24/05:30pm 26.3 23.3 13.8 46 7.4 ENE 22 33 12 18 1014.1 - 0.0
24/05:00pm 28.0 26.1 15.3 46 7.8 E 19 30 10 16 1013.6 - 0.0
24/04:30pm 28.2 26.1 15.1 44 8.0 ENE 20 35 11 19 1013.3 - 0.0
24/04:00pm 28.9 27.0 15.1 43 8.5 E 19 35 10 19 1012.9 - 0.0
24/03:30pm 29.6 26.9 14.6 40 9.2 E 22 37 12 20 1013.0 - 0.0
24/03:00pm 29.3 25.8 13.5 38 9.5 E 24 41 13 22 1013.1 1012.2 0.0
24/02:30pm 30.3 26.6 12.7 34 10.5 E 24 35 13 19 1013.4 - 0.0
24/02:00pm 30.7 26.7 13.0 33 10.6 ESE 26 39 14 21 1013.7 - 0.0
24/01:44pm 29.2 24.2 10.8 32 10.6 ESE 28 46 15 25 1014.0 - 0.0
24/01:30pm 30.1 26.2 12.1 33 10.6 E 24 35 13 19 1014.2 - 0.0
24/01:00pm 29.9 26.4 12.3 33 10.4 E 22 35 12 19 1014.7 - 0.0
24/12:30pm 29.0 24.9 12.8 36 9.6 ENE 26 37 14 20 1015.2 - 0.0
24/12:00pm 29.7 26.5 13.0 35 9.9 E 22 35 12 19 1015.8 1014.9 0.0
24/11:30am 29.5 26.1 12.4 35 10.1 E 22 39 12 21 1016.3 - 0.0
24/11:00am 29.6 26.9 14.6 40 9.2 E 22 33 12 18 1016.6 - 0.0
24/10:30am 29.1 26.5 14.9 42 8.7 ENE 22 39 12 21 1017.1 - 0.0
24/10:00am 28.4 25.8 15.0 44 8.2 ESE 22 35 12 19 1017.5 - 0.0
24/09:30am 26.4 23.5 15.1 49 6.9 ESE 24 39 13 21 1017.7 - 0.0
24/09:00am 26.3 23.5 15.4 51 6.6 ESE 24 39 13 21 1017.8 1017.0 0.0
24/08:30am 26.6 23.9 15.6 50 6.7 ESE 24 35 13 19 1017.9 - 0.0
24/08:00am 25.2 23.1 16.1 57 5.6 ESE 22 35 12 19 1017.7 - 0.0
24/07:30am 24.8 23.6 16.2 58 5.3 ESE 17 22 9 12 1017.1 - 0.0
24/07:00am 23.3 22.6 16.4 65 4.2 SE 15 19 8 10 1016.7 - 0.0
24/06:30am 22.7 22.6 16.0 66 4.1 E 11 17 6 9 1016.2 - 0.0
24/06:00am 22.7 22.2 16.0 66 4.1 ESE 13 20 7 11 1015.7 1014.9 0.0
24/05:30am 22.4 21.6 16.2 68 3.8 ESE 15 28 8 15 1015.5 - 0.0
24/05:00am 22.4 21.4 15.7 66 4.0 E 15 28 8 15 1015.0 - 0.0
24/04:30am 22.5 21.3 15.1 63 4.4 E 15 35 8 19 1014.8 - 0.0
24/04:00am 22.4 21.7 15.3 64 4.3 E 13 20 7 11 1014.6 - 0.0
24/03:30am 22.5 22.1 16.1 67 3.9 E 13 20 7 11 1014.4 - 0.0
24/03:00am 22.3 22.8 16.6 70 3.5 E 9 15 5 8 1014.4 1013.4 0.0
24/02:30am 21.8 23.1 17.0 74 3.0 SE 6 11 3 6 1014.5 - 0.0
24/02:00am 22.6 23.5 17.5 73 3.2 E 9 17 5 9 1014.8 - 0.0
24/01:30am 22.2 23.9 17.1 73 3.2 E 4 11 2 6 1015.1 - 0.0
24/01:00am 21.9 22.7 16.4 71 3.4 S 7 11 4 6 1015.5 - 0.0
24/12:30am 22.7 24.5 16.5 68 3.8 ESE 2 9 1 5 1015.9 - 0.0
24/12:00am 23.0 22.8 16.8 68 3.8 E 13 22 7 12 1016.0 1015.0 0.0
 
Date/Time
EST
Temp
°C
App
Temp
°C
Dew
Point
Rel
Hum
%
Delta-T
°C
Wind Press
QNH
hPa
Press
MSL
hPa
Rain
since 9 am
mm
Dir
 
Spd
km/h
Gust
km/h
Spd
kts
Gust
kts
23/11:30pm 23.1 23.1 17.1 69 3.7 E 13 22 7 12 1016.1 - 0.0
23/11:00pm 23.1 22.6 16.9 68 3.8 E 15 26 8 14 1016.2 - 0.0
23/10:30pm 23.5 23.3 16.8 66 4.1 E 13 26 7 14 1016.4 - 0.0
23/10:00pm 23.4 23.6 16.7 66 4.1 E 11 37 6 20 1016.2 - 0.0
23/09:30pm 23.3 21.8 16.8 67 4.0 NE 20 33 11 18 1015.7 - 0.0
23/09:00pm 23.4 21.5 16.7 66 4.1 ENE 22 39 12 21 1015.5 1014.6 0.0
23/08:40pm 23.7 20.6 16.5 64 4.4 ENE 28 50 15 27 1015.2 - 0.0
23/08:30pm 23.6 22.1 16.4 64 4.4 NE 19 33 10 18 1015.2 - 0.0
23/08:00pm 23.7 22.4 16.7 65 4.3 ENE 19 33 10 18 1015.4 - 0.0
23/07:30pm 23.8 22.2 16.1 62 4.7 ENE 19 28 10 15 1015.3 - 0.0
23/07:00pm 24.1 22.6 16.4 62 4.7 E 19 33 10 18 1015.1 - 0.0
23/06:30pm 24.4 22.6 15.9 59 5.2 ENE 20 37 11 20 1014.7 - 0.0
23/06:00pm 25.0 23.1 15.3 55 5.9 ENE 19 35 10 19 1014.3 1013.5 0.0
23/05:30pm 25.9 23.7 15.0 51 6.6 ENE 20 35 11 19 1014.0 - 0.0
23/05:00pm 27.0 24.2 14.4 46 7.6 ENE 22 37 12 20 1013.8 - 0.0
23/04:30pm 27.9 25.4 14.2 43 8.3 ENE 20 35 11 19 1013.4 - 0.0
23/04:00pm 28.2 25.7 14.1 42 8.5 ENE 20 35 11 19 1013.3 - 0.0
23/03:30pm 28.9 25.9 13.6 39 9.2 E 22 32 12 17 1013.2 - 0.0
23/03:00pm 29.6 26.2 13.8 38 9.5 E 24 35 13 19 1013.0 1012.1 0.0
23/02:30pm 30.6 28.1 13.4 35 10.4 E 19 35 10 19 1013.2 - 0.0
23/02:00pm 29.9 26.7 13.2 36 10.0 ENE 22 35 12 19 1013.5 - 0.0
23/01:30pm 30.0 26.9 13.3 36 10.0 ENE 22 32 12 17 1013.6 - 0.0
23/01:00pm 30.5 26.5 12.9 34 10.5 ENE 26 37 14 20 1013.8 - 0.0
23/12:30pm 30.5 27.5 12.4 33 10.7 E 20 33 11 18 1014.3 - 0.0
23/12:00pm 29.3 25.3 11.8 34 10.2 ENE 24 35 13 19 1014.7 1013.8 0.0
23/11:30am 29.9 26.6 10.9 31 11.0 ENE 19 30 10 16 1015.2 - 0.0
23/11:00am 29.6 26.3 11.6 33 10.5 E 20 35 11 19 1015.6 - 0.0
23/10:30am 29.8 26.7 13.5 36 9.8 NE 22 33 12 18 1015.8 - 0.0
23/10:00am 27.8 25.2 13.7 42 8.4 NE 20 28 11 15 1016.0 - 0.0
23/09:30am 27.6 25.4 14.3 44 8.0 ENE 19 26 10 14 1016.2 - 0.0
23/09:00am 26.8 24.7 13.5 44 7.9 SE 17 28 9 15 1016.5 1015.7 0.0
23/08:30am 26.3 25.7 14.7 48 7.0 ESE 11 22 6 12 1016.4 - 0.0
23/08:00am 25.1 23.9 15.1 53 6.0 SE 15 26 8 14 1016.4 - 0.0
23/07:30am 23.7 22.6 15.2 59 5.1 SSE 15 19 8 10 1016.1 - 0.0
23/07:00am 22.8 22.2 15.6 64 4.4 SSE 13 20 7 11 1015.8 - 0.0
23/06:30am 19.9 21.0 16.7 82 1.9 SW 6 11 3 6 1015.7 - 0.0
23/06:00am 17.8 19.4 16.0 89 1.1 SSW 2 9 1 5 1015.7 1014.8 0.0
23/05:30am 17.4 18.8 14.5 83 1.7 CALM 0 0 0 0 1015.3 - 0.0
23/05:00am 18.3 19.9 15.0 81 1.9 CALM 0 0 0 0 1014.9 - 0.0
23/04:30am 18.9 19.6 14.4 75 2.6 SSW 4 11 2 6 1014.6 - 0.0
23/04:00am 21.4 21.7 16.1 72 3.2 SE 9 15 5 8 1014.4 - 0.0
23/03:30am 21.5 21.9 16.2 72 3.2 W 9 13 5 7 1014.4 - 0.0
23/03:00am 20.0 20.4 16.2 79 2.3 WNW 9 11 5 6 1014.4 1013.4 0.0
23/02:30am 20.2 21.0 15.8 76 2.6 NNW 6 9 3 5 1014.5 - 0.0
23/02:00am 22.5 22.4 17.0 71 3.4 SSE 13 17 7 9 1014.6 - 0.0
23/01:30am 22.7 23.2 17.4 72 3.3 SE 11 17 6 9 1015.0 - 0.0
23/01:00am 22.2 23.4 16.9 72 3.3 S 6 9 3 5 1015.3 - 0.0
23/12:30am 22.1 22.4 16.1 69 3.6 NNE 9 17 5 9 1015.6 - 0.0
23/12:00am 22.6 23.3 16.2 67 3.9 S 7 11 4 6 1016.0 1015.0 0.0
 
Date/Time
EST
Temp
°C
App
Temp
°C
Dew
Point
Rel
Hum
%
Delta-T
°C
Wind Press
QNH
hPa
Press
MSL
hPa
Rain
since 9 am
mm
Dir
 
Spd
km/h
Gust
km/h
Spd
kts
Gust
kts
22/11:30pm 23.7 22.2 16.2 63 4.6 ESE 19 28 10 15 1016.1 - 0.0
22/11:00pm 23.8 24.8 16.3 63 4.6 S 6 24 3 13 1016.2 - 0.0
22/10:30pm 23.1 24.4 16.2 65 4.2 WSW 4 9 2 5 1016.2 - 0.0
22/10:00pm 23.8 23.3 16.8 65 4.3 ENE 15 26 8 14 1016.1 - 0.0
22/09:30pm 23.5 23.0 16.8 66 4.1 NNE 15 24 8 13 1016.3 - 0.0
22/09:00pm 23.6 22.8 17.1 67 4.0 NE 17 26 9 14 1016.1 1015.3 0.0
22/08:30pm 23.7 23.7 17.2 67 4.0 ENE 13 20 7 11 1015.8 - 0.0
22/08:00pm 23.7 23.3 17.2 67 4.0 ENE 15 26 8 14 1015.6 - 0.0
22/07:30pm 23.9 22.8 17.2 66 4.2 ENE 19 28 10 15 1015.1 - 0.0
22/07:00pm 24.1 22.7 16.9 64 4.5 ENE 20 32 11 17 1014.9 - 0.0
22/06:30pm 24.5 23.7 16.2 60 5.1 ENE 15 24 8 13 1014.5 - 0.0
22/06:00pm 25.5 24.1 16.6 58 5.5 ENE 19 28 10 15 1013.9 1013.1 0.0
22/05:30pm 26.7 25.1 16.6 54 6.3 NE 20 35 11 19 1013.7 - 0.0
22/05:00pm 27.8 25.9 16.7 50 7.0 NE 22 32 12 17 1013.4 - 0.0
22/04:30pm 28.4 26.2 17.0 50 7.2 NE 24 39 13 21 1013.2 - 0.0
22/04:00pm 28.8 26.0 16.4 47 7.8 ENE 26 39 14 21 1013.2 - 0.0
22/03:30pm 29.1 26.7 16.3 46 8.0 NE 24 37 13 20 1013.4 - 0.0
22/03:00pm 29.4 26.4 16.9 47 7.9 NE 28 35 15 19 1013.5 1012.5 0.0
22/02:30pm 30.5 27.6 16.1 41 9.0 NE 26 37 14 20 1013.7 - 0.0
22/02:00pm 29.5 27.3 16.0 44 8.4 NE 22 37 12 20 1013.9 - 0.0
22/01:51pm 29.6 26.1 16.4 45 8.3 NE 30 48 16 26 1014.0 - 0.0
22/01:30pm 30.1 26.4 15.0 40 9.3 NNE 28 39 15 21 1014.1 - 0.0
22/01:00pm 30.4 28.1 15.7 41 9.2 NE 22 37 12 20 1014.6 - 0.0
22/12:30pm 30.6 28.3 16.6 43 8.8 NE 24 39 13 21 1015.0 - 0.0
22/12:00pm 29.6 27.7 16.8 46 8.1 NNE 22 35 12 19 1015.4 1014.4 0.0
22/11:30am 30.6 28.5 16.2 41 9.0 NE 22 35 12 19 1015.7 - 0.0
22/11:00am 30.3 28.2 16.3 42 8.8 NE 22 39 12 21 1016.1 - 0.0
22/10:30am 29.9 28.2 16.3 43 8.5 NE 20 32 11 17 1016.4 - 0.0
22/10:00am 28.3 26.5 15.9 47 7.7 ENE 20 35 11 19 1016.6 - 0.0
22/09:30am 29.0 28.7 16.5 46 7.8 ENE 13 24 7 13 1016.7 - 0.0

Other Formats:

Comma delimited format used in spreadsheet applications
http://www.bom.gov.au/fwo/IDQ60801/IDQ60801.94183.axf

JavaScript Object Notation format (JSON) in row-major order
http://www.bom.gov.au/fwo/IDQ60801/IDQ60801.94183.json